createdAt,value
2018-06-04T00:00:16.333Z,16.90
2018-06-04T00:01:19.667Z,16.80
2018-06-04T00:02:23.001Z,16.90
2018-06-04T00:03:26.347Z,16.90
2018-06-04T00:04:29.689Z,16.90
2018-06-04T00:05:33.094Z,16.90
2018-06-04T00:06:36.440Z,16.90
2018-06-04T00:07:39.816Z,16.90
2018-06-04T00:08:43.159Z,16.90
2018-06-04T00:09:46.533Z,16.90
2018-06-04T00:10:49.903Z,16.90
2018-06-04T00:11:53.297Z,16.90
2018-06-04T00:12:56.631Z,16.90
2018-06-04T00:13:59.960Z,16.80
2018-06-04T00:15:03.311Z,16.80
2018-06-04T00:16:06.677Z,16.80
2018-06-04T00:17:10.017Z,16.80
2018-06-04T00:18:13.361Z,16.80
2018-06-04T00:19:16.750Z,16.80
2018-06-04T00:20:20.088Z,16.80
2018-06-04T00:21:23.440Z,16.80
2018-06-04T00:22:26.832Z,16.80
2018-06-04T00:23:31.005Z,16.80
2018-06-04T00:24:34.383Z,16.80
2018-06-04T00:26:40.818Z,16.80
2018-06-04T00:27:44.160Z,16.80
2018-06-04T00:28:47.539Z,16.70
2018-06-04T00:29:50.876Z,16.60
2018-06-04T00:30:54.203Z,16.60
2018-06-04T00:31:57.543Z,16.70
2018-06-04T00:33:00.939Z,16.70
2018-06-04T00:34:04.289Z,16.70
2018-06-04T00:35:07.673Z,16.60
2018-06-04T00:36:11.035Z,16.50
2018-06-04T00:37:14.386Z,16.40
2018-06-04T00:38:17.744Z,16.30
2018-06-04T00:39:21.100Z,16.30
2018-06-04T00:40:24.465Z,16.30
2018-06-04T00:41:27.792Z,16.20
2018-06-04T00:42:31.132Z,16.20
2018-06-04T00:45:40.663Z,16.30
2018-06-04T00:46:43.987Z,16.40
2018-06-04T00:47:47.348Z,16.50
2018-06-04T00:48:50.711Z,16.50
2018-06-04T00:49:54.087Z,16.50
2018-06-04T00:50:57.463Z,16.50
2018-06-04T00:52:00.853Z,16.50
2018-06-04T00:53:04.199Z,16.60
2018-06-04T00:54:07.561Z,16.60
2018-06-04T00:55:10.897Z,16.60
2018-06-04T00:56:21.483Z,16.60
2018-06-04T00:57:24.880Z,16.60
2018-06-04T00:58:28.231Z,16.50
2018-06-04T00:59:31.578Z,16.50
2018-06-04T01:00:34.920Z,16.50
2018-06-04T01:01:38.279Z,16.40
2018-06-04T01:02:41.654Z,16.30
2018-06-04T01:03:45.055Z,16.30
2018-06-04T01:04:48.454Z,16.30
2018-06-04T01:05:51.817Z,16.30
2018-06-04T01:06:55.216Z,16.30
2018-06-04T01:07:58.588Z,16.30
2018-06-04T01:09:01.980Z,16.20
2018-06-04T01:10:05.358Z,16.20
2018-06-04T01:11:09.533Z,16.20
2018-06-04T01:12:12.906Z,16.20
2018-06-04T01:13:16.256Z,16.20
2018-06-04T01:14:19.590Z,16.10
2018-06-04T01:15:22.953Z,16.00
2018-06-04T01:16:26.304Z,16.10
2018-06-04T01:17:29.655Z,16.10
2018-06-04T01:18:33.001Z,16.10
2018-06-04T01:19:36.343Z,16.10
2018-06-04T01:20:39.673Z,16.10
2018-06-04T01:21:43.003Z,16.10
2018-06-04T01:22:46.387Z,16.10
2018-06-04T01:23:49.724Z,16.00
2018-06-04T01:24:53.048Z,16.00
2018-06-04T01:25:56.401Z,16.00
2018-06-04T01:26:59.744Z,16.10
2018-06-04T01:28:03.120Z,16.10
2018-06-04T01:29:06.491Z,16.20
2018-06-04T01:30:09.832Z,16.20
2018-06-04T01:31:13.183Z,16.20
2018-06-04T01:32:16.519Z,16.20
2018-06-04T01:33:19.897Z,16.20
2018-06-04T01:34:23.260Z,16.20
2018-06-04T01:35:26.636Z,16.20
2018-06-04T01:36:29.981Z,16.20
2018-06-04T01:37:33.352Z,16.20
2018-06-04T01:38:36.767Z,16.20
2018-06-04T01:39:40.105Z,16.10
2018-06-04T01:40:43.453Z,16.10
2018-06-04T01:41:46.823Z,16.10
2018-06-04T01:42:50.153Z,16.10
2018-06-04T01:43:53.539Z,16.10
2018-06-04T01:44:56.870Z,16.10
2018-06-04T01:46:00.224Z,16.10
2018-06-04T01:47:03.576Z,16.10
2018-06-04T01:48:06.972Z,16.20
2018-06-04T01:49:10.366Z,16.20
2018-06-04T01:50:13.704Z,16.20
2018-06-04T01:51:17.064Z,16.20
2018-06-04T01:52:20.505Z,16.20
2018-06-04T01:53:23.855Z,16.20
2018-06-04T01:54:27.259Z,16.10
2018-06-04T01:55:30.625Z,16.10
2018-06-04T01:56:33.991Z,16.10
2018-06-04T01:57:37.362Z,16.10
2018-06-04T01:58:40.733Z,16.00
2018-06-04T01:59:44.101Z,16.00
2018-06-04T02:00:47.487Z,16.00
2018-06-04T02:01:50.901Z,16.00
2018-06-04T02:02:54.251Z,16.00
2018-06-04T02:03:57.621Z,15.90
2018-06-04T02:05:00.967Z,15.90
2018-06-04T02:06:04.384Z,15.90
2018-06-04T02:07:07.744Z,15.90
2018-06-04T02:08:11.108Z,15.80
2018-06-04T02:09:14.467Z,15.80
2018-06-04T02:10:17.820Z,15.80
2018-06-04T02:11:21.249Z,15.80
2018-06-04T02:12:24.622Z,15.80
2018-06-04T02:13:27.958Z,15.80
2018-06-04T02:14:31.393Z,15.70
2018-06-04T02:15:34.751Z,15.70
2018-06-04T02:16:38.129Z,15.60
2018-06-04T02:17:41.482Z,15.60
2018-06-04T02:18:44.818Z,15.60
2018-06-04T02:19:48.195Z,15.50
2018-06-04T02:20:51.538Z,15.50
2018-06-04T02:21:54.949Z,15.50
2018-06-04T02:22:58.292Z,15.50
2018-06-04T02:24:01.628Z,15.50
2018-06-04T02:25:05.109Z,15.50
2018-06-04T02:26:08.454Z,15.50
2018-06-04T02:27:11.849Z,15.60
2018-06-04T02:28:15.280Z,15.60
2018-06-04T02:29:18.632Z,15.70
2018-06-04T02:30:21.969Z,15.70
2018-06-04T02:31:25.313Z,15.70
2018-06-04T02:32:28.638Z,15.70
2018-06-04T02:33:32.058Z,15.70
2018-06-04T02:34:35.459Z,15.70
2018-06-04T02:35:38.800Z,15.70
2018-06-04T02:36:42.164Z,15.70
2018-06-04T02:37:45.560Z,15.70
2018-06-04T02:38:48.952Z,15.70
2018-06-04T02:39:52.351Z,15.60
2018-06-04T02:40:55.693Z,15.60
2018-06-04T02:43:02.128Z,15.60
2018-06-04T02:44:05.496Z,15.60
2018-06-04T02:45:08.888Z,15.50
2018-06-04T02:46:12.274Z,15.50
2018-06-04T02:47:15.608Z,15.50
2018-06-04T02:48:19.020Z,15.50
2018-06-04T02:49:22.406Z,15.50
2018-06-04T02:50:25.753Z,15.50
2018-06-04T02:51:29.115Z,15.50
2018-06-04T02:52:32.475Z,15.50
2018-06-04T02:53:35.800Z,15.50
2018-06-04T02:54:39.170Z,15.50
2018-06-04T02:55:42.516Z,15.40
2018-06-04T02:56:45.859Z,15.40
2018-06-04T02:57:49.269Z,15.40
2018-06-04T02:58:52.640Z,15.40
2018-06-04T02:59:56.055Z,15.40
2018-06-04T03:00:59.427Z,15.40
2018-06-04T03:02:02.796Z,15.30
2018-06-04T03:03:06.202Z,15.30
2018-06-04T03:04:09.588Z,15.30
2018-06-04T03:05:12.931Z,15.20
2018-06-04T03:06:16.297Z,15.20
2018-06-04T03:07:19.663Z,15.20
2018-06-04T03:08:23.059Z,15.20
2018-06-04T03:09:26.400Z,15.10
2018-06-04T03:10:29.763Z,15.10
2018-06-04T03:11:33.189Z,15.10
2018-06-04T03:12:36.545Z,15.10
2018-06-04T03:13:39.916Z,15.10
2018-06-04T03:14:43.303Z,15.10
2018-06-04T03:15:46.683Z,15.10
2018-06-04T03:16:50.092Z,15.10
2018-06-04T03:17:53.436Z,15.10
2018-06-04T03:18:56.789Z,15.10
2018-06-04T03:20:00.167Z,15.10
2018-06-04T03:21:03.543Z,15.10
2018-06-04T03:22:06.922Z,15.10
2018-06-04T03:23:10.272Z,15.20
2018-06-04T03:24:13.624Z,15.20
2018-06-04T03:25:16.955Z,15.20
2018-06-04T03:26:20.288Z,15.20
2018-06-04T03:27:24.231Z,15.20
2018-06-04T03:28:28.212Z,15.20
2018-06-04T03:29:32.340Z,15.10
2018-06-04T03:30:35.706Z,15.10
2018-06-04T03:31:39.044Z,15.10
2018-06-04T03:32:42.815Z,15.20
2018-06-04T03:33:46.212Z,15.20
2018-06-04T03:34:49.644Z,15.10
2018-06-04T03:35:53.057Z,15.10
2018-06-04T03:36:56.459Z,15.10
2018-06-04T03:37:59.929Z,15.10
2018-06-04T03:39:04.601Z,15.10
2018-06-04T03:40:08.031Z,15.10
2018-06-04T03:41:11.452Z,15.10
2018-06-04T03:42:14.804Z,15.10
2018-06-04T03:43:18.148Z,15.10
2018-06-04T03:44:21.493Z,15.00
2018-06-04T03:45:24.859Z,15.00
2018-06-04T03:46:28.197Z,15.00
2018-06-04T03:47:31.547Z,15.00
2018-06-04T03:48:34.889Z,15.10
2018-06-04T03:49:38.253Z,15.10
2018-06-04T03:50:41.601Z,15.10
2018-06-04T03:51:44.936Z,15.00
2018-06-04T03:52:48.277Z,15.10
2018-06-04T03:53:51.603Z,15.10
2018-06-04T03:54:54.979Z,15.10
2018-06-04T03:55:58.343Z,15.10
2018-06-04T03:57:01.712Z,15.10
2018-06-04T03:58:05.051Z,15.10
2018-06-04T03:59:08.417Z,15.10
2018-06-04T04:00:11.767Z,15.00
2018-06-04T04:01:15.109Z,15.10
2018-06-04T04:02:18.480Z,15.10
2018-06-04T04:03:21.837Z,15.20
2018-06-04T04:04:25.192Z,15.20
2018-06-04T04:05:28.571Z,15.20
2018-06-04T04:06:31.925Z,15.30
2018-06-04T04:07:35.291Z,15.30
2018-06-04T04:09:41.741Z,15.30
2018-06-04T04:10:45.084Z,15.40
2018-06-04T04:11:48.456Z,15.40
2018-06-04T04:12:51.821Z,15.40
2018-06-04T04:13:55.176Z,15.40
2018-06-04T04:14:58.512Z,15.40
2018-06-04T04:16:01.856Z,15.40
2018-06-04T04:17:05.195Z,15.40
2018-06-04T04:18:08.562Z,15.50
2018-06-04T04:19:11.987Z,15.50
2018-06-04T04:20:15.327Z,15.60
2018-06-04T04:21:18.673Z,15.60
2018-06-04T04:22:22.017Z,15.60
2018-06-04T04:23:25.417Z,15.60
2018-06-04T04:24:28.798Z,15.50
2018-06-04T04:25:32.138Z,15.50
2018-06-04T04:26:35.471Z,15.50
2018-06-04T04:27:38.845Z,15.60
2018-06-04T04:28:42.187Z,15.70
2018-06-04T04:29:45.544Z,15.70
2018-06-04T04:30:48.886Z,15.70
2018-06-04T04:31:52.238Z,15.80
2018-06-04T04:32:55.624Z,15.70
2018-06-04T04:33:58.974Z,15.70
2018-06-04T04:35:02.321Z,15.80
2018-06-04T04:36:05.677Z,15.80
2018-06-04T04:37:09.046Z,15.80
2018-06-04T04:38:12.396Z,15.80
2018-06-04T04:39:15.777Z,15.80
2018-06-04T04:40:19.157Z,15.90
2018-06-04T04:41:22.493Z,15.90
2018-06-04T04:42:25.852Z,15.90
2018-06-04T04:43:29.260Z,15.90
2018-06-04T04:44:32.592Z,16.00
2018-06-04T04:45:35.949Z,15.90
2018-06-04T04:46:39.362Z,15.90
2018-06-04T04:47:42.667Z,15.90
2018-06-04T04:48:46.048Z,15.90
2018-06-04T04:49:49.457Z,16.00
2018-06-04T04:50:52.805Z,16.00
2018-06-04T04:51:56.171Z,16.10
2018-06-04T04:52:59.514Z,16.10
2018-06-04T04:54:02.868Z,16.10
2018-06-04T04:55:06.303Z,16.20
2018-06-04T04:56:09.643Z,16.20
2018-06-04T04:57:12.983Z,16.20
2018-06-04T04:58:16.319Z,16.20
2018-06-04T04:59:19.688Z,16.30
2018-06-04T05:00:23.027Z,16.30
2018-06-04T05:01:26.372Z,16.30
2018-06-04T05:02:29.709Z,16.40
2018-06-04T05:04:36.170Z,16.50
2018-06-04T05:05:39.501Z,16.50
2018-06-04T05:06:42.867Z,16.50
2018-06-04T05:07:46.207Z,16.40
2018-06-04T05:08:49.539Z,16.40
2018-06-04T05:09:52.919Z,16.30
2018-06-04T05:10:56.272Z,16.40
2018-06-04T05:11:59.630Z,16.40
2018-06-04T05:13:02.972Z,16.40
2018-06-04T05:14:06.377Z,16.50
2018-06-04T05:15:09.764Z,16.50
2018-06-04T05:16:13.104Z,16.50
2018-06-04T05:17:16.479Z,16.50
2018-06-04T05:18:19.887Z,16.50
2018-06-04T05:19:23.224Z,16.50
2018-06-04T05:20:26.672Z,16.30
2018-06-04T05:21:30.077Z,16.20
2018-06-04T05:22:33.420Z,16.20
2018-06-04T05:23:36.768Z,16.30
2018-06-04T05:24:40.225Z,16.20
2018-06-04T05:25:43.545Z,16.20
2018-06-04T05:26:46.924Z,16.20
2018-06-04T05:27:50.263Z,16.20
2018-06-04T05:28:53.653Z,16.20
2018-06-04T05:31:00.911Z,16.30
2018-06-04T05:32:04.310Z,16.40
2018-06-04T05:33:07.649Z,16.40
2018-06-04T05:34:11.004Z,16.50
2018-06-04T05:35:14.348Z,16.60
2018-06-04T05:36:17.720Z,16.60
2018-06-04T05:37:21.073Z,16.60
2018-06-04T05:38:24.458Z,16.60
2018-06-04T05:39:27.800Z,16.70
2018-06-04T05:40:31.236Z,16.80
2018-06-04T05:41:34.586Z,16.70
2018-06-04T05:42:37.920Z,16.80
2018-06-04T05:43:41.315Z,16.70
2018-06-04T05:44:44.651Z,16.70
2018-06-04T05:45:47.999Z,16.60
2018-06-04T05:46:51.337Z,16.60
2018-06-04T05:47:54.682Z,16.60
2018-06-04T05:48:58.054Z,16.50
2018-06-04T05:50:01.410Z,16.40
2018-06-04T05:51:04.736Z,16.50
2018-06-04T05:52:08.068Z,16.50
2018-06-04T05:53:11.450Z,16.30
2018-06-04T05:54:14.789Z,16.30
2018-06-04T05:55:18.141Z,16.30
2018-06-04T05:56:21.482Z,16.50
2018-06-04T05:57:24.817Z,16.50
2018-06-04T05:58:28.180Z,16.60
2018-06-04T05:59:31.517Z,16.70
2018-06-04T06:00:34.846Z,16.80
2018-06-04T06:01:38.175Z,16.80
2018-06-04T06:02:41.520Z,16.80
2018-06-04T06:03:44.893Z,16.70
2018-06-04T06:04:48.244Z,16.70
2018-06-04T06:05:51.590Z,16.70
2018-06-04T06:06:54.933Z,16.80
2018-06-04T06:07:58.274Z,16.90
2018-06-04T06:09:01.656Z,17.00
2018-06-04T06:10:05.007Z,17.00
2018-06-04T06:11:08.384Z,17.00
2018-06-04T06:12:11.705Z,17.10
2018-06-04T06:13:15.065Z,17.20
2018-06-04T06:14:18.457Z,17.20
2018-06-04T06:15:21.828Z,17.30
2018-06-04T06:16:25.177Z,17.20
2018-06-04T06:17:28.537Z,17.30
2018-06-04T06:18:31.895Z,17.30
2018-06-04T06:19:35.229Z,17.40
2018-06-04T06:20:38.556Z,17.40
2018-06-04T06:21:41.912Z,17.20
2018-06-04T06:22:45.292Z,17.30
2018-06-04T06:23:48.627Z,17.50
2018-06-04T06:24:51.969Z,17.60
2018-06-04T06:25:55.351Z,17.60
2018-06-04T06:26:58.680Z,17.60
2018-06-04T06:28:02.053Z,17.70
2018-06-04T06:29:05.389Z,17.70
2018-06-04T06:30:08.741Z,17.70
2018-06-04T06:31:12.124Z,17.40
2018-06-04T06:32:15.459Z,17.20
2018-06-04T06:33:18.795Z,17.30
2018-06-04T06:34:22.137Z,17.40
2018-06-04T06:35:25.473Z,17.50
2018-06-04T06:36:28.888Z,17.60
2018-06-04T06:37:32.264Z,17.60
2018-06-04T06:38:35.584Z,17.70
2018-06-04T06:39:38.932Z,17.80
2018-06-04T06:40:42.273Z,17.70
2018-06-04T06:41:45.660Z,17.70
2018-06-04T06:42:49.012Z,17.70
2018-06-04T06:43:52.352Z,17.60
2018-06-04T06:44:55.679Z,17.70
2018-06-04T06:45:59.029Z,17.80
2018-06-04T06:47:02.428Z,17.80
2018-06-04T06:48:05.847Z,17.90
2018-06-04T06:49:09.187Z,18.00
2018-06-04T06:50:12.615Z,18.10
2018-06-04T06:51:15.884Z,18.10
2018-06-04T06:52:19.248Z,18.20
2018-06-04T06:53:22.629Z,18.10
2018-06-04T06:54:25.985Z,18.10
2018-06-04T06:55:29.409Z,18.30
2018-06-04T06:56:32.714Z,18.40
2018-06-04T06:57:36.045Z,18.50
2018-06-04T06:58:39.413Z,18.50
2018-06-04T06:59:42.748Z,18.60
2018-06-04T07:00:46.214Z,18.50
2018-06-04T07:01:49.601Z,18.60
2018-06-04T07:02:52.949Z,18.60
2018-06-04T07:03:56.302Z,18.60
2018-06-04T07:04:59.636Z,18.60
2018-06-04T07:06:03.019Z,18.70
2018-06-04T07:07:06.394Z,18.60
2018-06-04T07:08:09.739Z,18.60
2018-06-04T07:09:13.069Z,18.60
2018-06-04T07:11:19.463Z,18.60
2018-06-04T07:12:22.860Z,18.70
2018-06-04T07:13:26.266Z,18.70
2018-06-04T07:14:29.630Z,18.70
2018-06-04T07:15:32.987Z,18.90
2018-06-04T07:16:36.333Z,18.90
2018-06-04T07:17:39.675Z,18.90
2018-06-04T07:18:43.079Z,19.00
2018-06-04T07:19:46.432Z,19.10
2018-06-04T07:20:49.792Z,19.10
2018-06-04T07:21:53.126Z,19.20
2018-06-04T07:23:03.315Z,19.30
2018-06-04T07:24:06.737Z,19.20
2018-06-04T07:25:10.093Z,19.30
2018-06-04T07:26:13.427Z,19.30
2018-06-04T07:27:16.769Z,19.40
2018-06-04T07:28:20.116Z,19.50
2018-06-04T07:29:23.508Z,19.60
2018-06-04T07:30:26.973Z,19.60
2018-06-04T07:31:30.360Z,19.70
2018-06-04T07:32:33.709Z,19.70
2018-06-04T07:33:37.058Z,19.80
2018-06-04T07:34:40.445Z,19.90
2018-06-04T07:35:43.771Z,19.80
2018-06-04T07:36:47.138Z,20.00
2018-06-04T07:37:50.496Z,20.10
2018-06-04T07:38:53.868Z,20.10
2018-06-04T07:39:57.214Z,20.10
2018-06-04T07:41:00.599Z,20.20
2018-06-04T07:42:03.970Z,20.30
2018-06-04T07:43:07.337Z,20.30
2018-06-04T07:44:10.664Z,20.30
2018-06-04T07:45:14.005Z,20.30
2018-06-04T07:46:17.373Z,20.30
2018-06-04T07:47:20.744Z,20.50
2018-06-04T07:48:24.077Z,20.60
2018-06-04T07:49:27.413Z,20.70
2018-06-04T07:50:30.796Z,20.70
2018-06-04T07:51:34.220Z,20.70
2018-06-04T07:52:37.586Z,20.70
2018-06-04T07:53:40.936Z,20.80
2018-06-04T07:54:44.307Z,20.80
2018-06-04T07:55:47.645Z,20.90
2018-06-04T07:56:51.044Z,21.00
2018-06-04T07:57:54.390Z,21.10
2018-06-04T07:58:57.730Z,21.10
2018-06-04T08:00:01.094Z,21.10
2018-06-04T08:01:04.424Z,21.10
2018-06-04T08:02:07.789Z,21.10
2018-06-04T08:03:11.170Z,21.10
2018-06-04T08:04:14.538Z,21.20
2018-06-04T08:05:17.908Z,21.20
2018-06-04T08:06:21.291Z,21.30
2018-06-04T08:07:24.668Z,21.30
2018-06-04T08:08:28.049Z,21.30
2018-06-04T08:09:31.403Z,21.40
2018-06-04T08:10:34.745Z,21.50
2018-06-04T08:11:38.204Z,21.50
2018-06-04T08:12:41.535Z,21.60
2018-06-04T08:13:44.923Z,21.70
2018-06-04T08:14:48.304Z,21.70
2018-06-04T08:15:51.644Z,21.80
2018-06-04T08:16:55.077Z,21.90
2018-06-04T08:17:58.489Z,22.00
2018-06-04T08:19:01.878Z,21.90
2018-06-04T08:20:05.272Z,21.90
2018-06-04T08:21:08.658Z,22.00
2018-06-04T08:22:11.996Z,22.00
2018-06-04T08:23:15.311Z,22.00
2018-06-04T08:24:18.721Z,22.10
2018-06-04T08:25:22.198Z,22.10
2018-06-04T08:26:25.527Z,22.20
2018-06-04T08:27:28.873Z,22.20
2018-06-04T08:28:32.234Z,22.30
2018-06-04T08:29:35.572Z,22.30
2018-06-04T08:30:38.951Z,22.30
2018-06-04T08:31:42.308Z,22.30
2018-06-04T08:32:45.649Z,22.40
2018-06-04T08:33:48.994Z,22.60
2018-06-04T08:34:52.323Z,22.60
2018-06-04T08:35:55.722Z,22.70
2018-06-04T08:36:59.077Z,22.70
2018-06-04T08:38:02.428Z,22.80
2018-06-04T08:39:07.865Z,22.70
2018-06-04T08:40:11.330Z,22.80
2018-06-04T08:41:14.639Z,22.80
2018-06-04T08:42:17.989Z,22.90
2018-06-04T08:43:21.379Z,22.90
2018-06-04T08:44:24.735Z,22.90
2018-06-04T08:45:28.076Z,22.90
2018-06-04T08:46:31.450Z,23.00
2018-06-04T08:47:34.797Z,22.90
2018-06-04T08:48:38.200Z,22.90
2018-06-04T08:49:41.558Z,23.00
2018-06-04T08:50:44.905Z,23.00
2018-06-04T08:51:48.282Z,23.00
2018-06-04T08:52:51.642Z,23.00
2018-06-04T08:53:55.005Z,23.10
2018-06-04T08:54:58.393Z,23.10
2018-06-04T08:56:01.738Z,23.10
2018-06-04T08:57:05.090Z,23.20
2018-06-04T08:58:08.609Z,23.30
2018-06-04T08:59:12.019Z,23.40
2018-06-04T09:00:15.355Z,23.50
2018-06-04T09:01:18.708Z,23.50
2018-06-04T09:02:22.056Z,23.40
2018-06-04T09:03:25.439Z,23.50
2018-06-04T09:04:28.809Z,23.50
2018-06-04T09:05:32.156Z,23.50
2018-06-04T09:06:35.499Z,23.60
2018-06-04T09:07:38.852Z,23.60
2018-06-04T09:08:42.313Z,23.70
2018-06-04T09:09:45.701Z,23.70
2018-06-04T09:10:49.071Z,23.70
2018-06-04T09:11:52.419Z,23.70
2018-06-04T09:12:55.756Z,23.60
2018-06-04T09:13:59.096Z,23.60
2018-06-04T09:15:02.485Z,23.70
2018-06-04T09:16:05.835Z,23.80
2018-06-04T09:17:09.176Z,23.90
2018-06-04T09:18:12.535Z,23.90
2018-06-04T09:19:15.883Z,23.90
2018-06-04T09:20:19.291Z,23.90
2018-06-04T09:21:22.677Z,24.10
2018-06-04T09:22:26.033Z,24.20
2018-06-04T09:23:29.369Z,24.30
2018-06-04T09:24:32.692Z,24.40
2018-06-04T09:25:36.021Z,24.60
2018-06-04T09:26:39.390Z,24.60
2018-06-04T09:27:42.745Z,24.80
2018-06-04T09:28:46.084Z,24.80
2018-06-04T09:29:49.446Z,24.80
2018-06-04T09:30:52.818Z,24.90
2018-06-04T09:31:56.208Z,24.70
2018-06-04T09:32:59.546Z,24.70
2018-06-04T09:34:02.922Z,24.80
2018-06-04T09:35:06.306Z,24.80
2018-06-04T09:36:09.651Z,25.00
2018-06-04T09:37:13.027Z,25.00
2018-06-04T09:38:16.364Z,24.90
2018-06-04T09:39:19.696Z,25.10
2018-06-04T09:40:23.041Z,25.20
2018-06-04T09:41:26.385Z,25.30
2018-06-04T09:42:29.759Z,25.30
2018-06-04T09:43:33.098Z,25.40
2018-06-04T09:44:36.429Z,25.50
2018-06-04T09:45:39.772Z,25.70
2018-06-04T09:46:43.101Z,25.90
2018-06-04T09:47:46.476Z,26.00
2018-06-04T09:48:49.797Z,26.10
2018-06-04T09:49:53.152Z,26.10
2018-06-04T09:50:56.492Z,26.10
2018-06-04T09:51:59.838Z,26.00
2018-06-04T09:54:12.736Z,25.80
2018-06-04T09:55:16.069Z,26.00
2018-06-04T09:56:19.390Z,25.90
2018-06-04T09:57:22.725Z,26.10
2018-06-04T09:58:26.097Z,26.10
2018-06-04T09:59:29.427Z,26.20
2018-06-04T10:00:35.352Z,26.20
2018-06-04T10:01:38.715Z,26.30
2018-06-04T10:02:42.076Z,26.50
2018-06-04T10:03:45.422Z,26.50
2018-06-04T10:04:48.820Z,26.50
2018-06-04T10:05:52.133Z,26.50
2018-06-04T10:06:55.510Z,26.60
2018-06-04T10:07:58.900Z,26.50
2018-06-04T10:09:02.219Z,26.60
2018-06-04T10:10:05.554Z,26.40
2018-06-04T10:11:08.948Z,26.30
2018-06-04T10:12:12.289Z,26.30
2018-06-04T10:13:15.674Z,26.20
2018-06-04T10:14:19.040Z,26.30
2018-06-04T10:15:22.373Z,26.40
2018-06-04T10:16:25.722Z,26.50
2018-06-04T10:17:29.099Z,26.50
2018-06-04T10:18:32.468Z,26.60
2018-06-04T10:19:35.840Z,26.50
2018-06-04T10:20:39.204Z,26.40
2018-06-04T10:21:42.549Z,26.50
2018-06-04T10:22:45.891Z,26.50
2018-06-04T10:23:49.218Z,26.70
2018-06-04T10:24:52.556Z,26.80
2018-06-04T10:25:55.928Z,26.70
2018-06-04T10:26:59.315Z,26.70
2018-06-04T10:28:02.668Z,26.70
2018-06-04T10:29:05.995Z,26.80
2018-06-04T10:30:09.323Z,26.90
2018-06-04T10:31:12.642Z,26.80
2018-06-04T10:32:16.012Z,26.80
2018-06-04T10:33:19.341Z,26.90
2018-06-04T10:34:22.679Z,26.80
2018-06-04T10:35:26.168Z,27.00
2018-06-04T10:36:29.536Z,27.10
2018-06-04T10:37:32.915Z,27.00
2018-06-04T10:38:36.261Z,27.10
2018-06-04T10:39:39.607Z,27.20
2018-06-04T10:40:42.990Z,27.00
2018-06-04T10:41:46.364Z,26.60
2018-06-04T10:42:49.745Z,26.50
2018-06-04T10:43:53.082Z,26.40
2018-06-04T10:44:56.424Z,26.40
2018-06-04T10:45:59.761Z,26.40
2018-06-04T10:47:03.111Z,26.40
2018-06-04T10:48:08.024Z,26.60
2018-06-04T10:49:11.378Z,26.80
2018-06-04T10:50:14.737Z,27.00
2018-06-04T10:51:18.083Z,27.00
2018-06-04T10:52:21.462Z,26.90
2018-06-04T10:53:24.835Z,27.00
2018-06-04T10:54:28.187Z,27.00
2018-06-04T10:55:31.553Z,27.30
2018-06-04T10:56:34.895Z,27.50
2018-06-04T10:57:38.279Z,27.50
2018-06-04T10:58:41.668Z,27.60
2018-06-04T10:59:45.021Z,27.90
2018-06-04T11:00:48.373Z,28.10
2018-06-04T11:01:51.729Z,28.30
2018-06-04T11:02:55.067Z,28.20
2018-06-04T11:03:58.441Z,28.30
2018-06-04T11:05:01.775Z,28.20
2018-06-04T11:06:05.118Z,28.00
2018-06-04T11:07:08.485Z,28.10
2018-06-04T11:08:11.823Z,28.10
2018-06-04T11:09:15.228Z,28.10
2018-06-04T11:10:18.584Z,28.10
2018-06-04T11:11:21.929Z,28.00
2018-06-04T11:12:25.267Z,28.00
2018-06-04T11:13:28.616Z,28.10
2018-06-04T11:14:32.000Z,28.10
2018-06-04T11:15:35.349Z,28.40
2018-06-04T11:16:38.711Z,28.40
2018-06-04T11:17:42.095Z,28.20
2018-06-04T11:18:45.923Z,28.30
2018-06-04T11:19:49.319Z,28.40
2018-06-04T11:20:52.797Z,28.30
2018-06-04T11:21:56.157Z,28.40
2018-06-04T11:22:59.522Z,28.60
2018-06-04T11:24:02.995Z,28.80
2018-06-04T11:25:06.336Z,28.70
2018-06-04T11:26:09.740Z,28.60
2018-06-04T11:27:13.076Z,28.80
2018-06-04T11:28:16.424Z,29.00
2018-06-04T11:29:19.768Z,29.10
2018-06-04T11:30:23.145Z,28.90
2018-06-04T11:31:26.507Z,29.10
2018-06-04T11:32:29.844Z,29.00
2018-06-04T11:33:33.180Z,29.00
2018-06-04T11:34:36.541Z,28.80
2018-06-04T11:35:39.892Z,28.60
2018-06-04T11:36:43.276Z,28.80
2018-06-04T11:37:46.630Z,28.80
2018-06-04T11:38:49.981Z,28.80
2018-06-04T11:39:53.332Z,28.80
2018-06-04T11:40:56.666Z,28.90
2018-06-04T11:42:06.756Z,28.90
2018-06-04T11:43:10.096Z,28.80
2018-06-04T11:44:13.454Z,28.40
2018-06-04T11:45:16.807Z,28.60
2018-06-04T11:46:20.181Z,28.70
2018-06-04T11:47:23.531Z,28.60
2018-06-04T11:48:26.913Z,28.80
2018-06-04T11:49:30.279Z,28.90
2018-06-04T11:50:33.623Z,28.80
2018-06-04T11:51:36.964Z,28.80
2018-06-04T11:52:40.310Z,28.80
2018-06-04T11:53:43.692Z,28.80
2018-06-04T11:54:47.039Z,28.90
2018-06-04T11:55:50.387Z,29.00
2018-06-04T11:56:53.730Z,29.30
2018-06-04T11:57:57.088Z,29.40
2018-06-04T11:59:00.425Z,29.60
2018-06-04T12:00:03.810Z,29.70
2018-06-04T12:01:07.160Z,29.50
2018-06-04T12:03:13.609Z,29.60
2018-06-04T12:04:16.952Z,29.80
2018-06-04T12:05:20.297Z,30.00
2018-06-04T12:06:23.667Z,30.10
2018-06-04T12:08:30.113Z,30.30
2018-06-04T12:09:33.474Z,30.50
2018-06-04T12:10:36.821Z,30.20
2018-06-04T12:11:40.217Z,30.30
2018-06-04T12:12:43.552Z,30.10
2018-06-04T12:13:46.896Z,30.10
2018-06-04T12:14:50.240Z,30.10
2018-06-04T12:15:53.587Z,30.10
2018-06-04T12:16:56.949Z,30.00
2018-06-04T12:18:00.320Z,30.20
2018-06-04T12:19:03.707Z,30.20
2018-06-04T12:20:07.081Z,30.30
2018-06-04T12:21:10.461Z,30.30
2018-06-04T12:22:13.831Z,30.50
2018-06-04T12:23:17.167Z,30.30
2018-06-04T12:24:20.501Z,30.20
2018-06-04T12:25:23.829Z,30.10
2018-06-04T12:26:27.195Z,30.30
2018-06-04T12:27:30.525Z,30.20
2018-06-04T12:28:33.872Z,30.10
2018-06-04T12:29:37.201Z,30.00
2018-06-04T12:30:40.576Z,30.30
2018-06-04T12:31:43.946Z,30.50
2018-06-04T12:32:47.336Z,30.50
2018-06-04T12:33:50.676Z,30.70
2018-06-04T12:34:53.999Z,30.70
2018-06-04T12:35:57.322Z,30.60
2018-06-04T12:37:00.749Z,30.70
2018-06-04T12:38:04.141Z,30.60
2018-06-04T12:39:09.091Z,30.70
2018-06-04T12:40:12.420Z,30.80
2018-06-04T12:41:16.263Z,30.80
2018-06-04T12:42:19.635Z,30.80
2018-06-04T12:43:22.973Z,30.90
2018-06-04T12:44:26.320Z,31.10
2018-06-04T12:45:29.703Z,31.20
2018-06-04T12:46:33.036Z,31.30
2018-06-04T12:47:36.355Z,31.30
2018-06-04T12:48:39.685Z,31.30
2018-06-04T12:49:43.015Z,31.20
2018-06-04T12:50:46.403Z,31.10
2018-06-04T12:51:49.736Z,31.10
2018-06-04T12:52:53.056Z,30.90
2018-06-04T12:53:56.375Z,30.50
2018-06-04T12:54:59.768Z,30.30
2018-06-04T12:56:03.112Z,30.30
2018-06-04T12:57:06.455Z,30.20
2018-06-04T12:58:09.830Z,30.40
2018-06-04T12:59:13.159Z,30.50
2018-06-04T13:00:16.540Z,30.70
2018-06-04T13:01:19.879Z,30.50
2018-06-04T13:02:23.236Z,30.50
2018-06-04T13:03:26.575Z,30.30
2018-06-04T13:04:29.937Z,30.30
2018-06-04T13:05:33.451Z,30.50
2018-06-04T13:06:36.815Z,30.70
2018-06-04T13:07:40.171Z,30.90
2018-06-04T13:08:43.518Z,31.00
2018-06-04T13:09:46.907Z,30.90
2018-06-04T13:10:50.241Z,30.90
2018-06-04T13:11:53.566Z,31.10
2018-06-04T13:12:56.958Z,31.10
2018-06-04T13:14:00.320Z,31.00
2018-06-04T13:15:03.707Z,30.60
2018-06-04T13:16:07.093Z,30.70
2018-06-04T13:17:10.437Z,30.70
2018-06-04T13:18:13.761Z,30.90
2018-06-04T13:19:17.095Z,30.80
2018-06-04T13:20:20.468Z,30.90
2018-06-04T13:21:23.839Z,31.00
2018-06-04T13:22:27.203Z,31.10
2018-06-04T13:23:30.561Z,31.20
2018-06-04T13:24:33.912Z,31.20
2018-06-04T13:25:37.289Z,31.30
2018-06-04T13:26:40.623Z,31.30
2018-06-04T13:27:44.013Z,31.10
2018-06-04T13:28:47.423Z,30.70
2018-06-04T13:29:50.792Z,30.70
2018-06-04T13:30:54.156Z,30.50
2018-06-04T13:31:57.495Z,30.80
2018-06-04T13:33:00.834Z,30.90
2018-06-04T13:34:04.172Z,30.90
2018-06-04T13:35:07.536Z,30.70
2018-06-04T13:36:10.888Z,30.90
2018-06-04T13:37:14.244Z,31.00
2018-06-04T13:38:17.571Z,31.20
2018-06-04T13:39:20.925Z,31.30
2018-06-04T13:40:24.314Z,31.20
2018-06-04T13:41:27.641Z,31.30
2018-06-04T13:42:31.024Z,31.50
2018-06-04T13:43:34.525Z,31.60
2018-06-04T13:44:37.909Z,31.30
2018-06-04T13:45:43.106Z,30.90
2018-06-04T13:46:46.459Z,30.70
2018-06-04T13:47:49.813Z,30.80